x

Destruction Island, Wa (desw1) Weather Station

2:00 - Wed 16th Apr 2014 All times are PDT. -7 hours from GMT.

  • Wind
    15mph, 16mph gusts
  • Air Temp 49°f
  • Sea Pressure 1018.2mb
  • Destruction Island, Wa
  • Destruction Island, Wa

More Historic Weather Station data

Upgrade to MSW Pro to gain access to the past 30 days of data for over 8000 Wavebouys and Weather Stations around the globe.

Join Pro

Comparision Forecast

View Surf forecast
   
mer. 04/16 2:00 15 16 mph 1018.2mb 49f
1:00 15 16 mph 1018.5mb 49f
12:00 11 13 mph 1018.5mb 49f
mar. 04/15 11:00 9
mph
1018.8mb 49f
10:00 11 13 mph 1019mb 49f
9:00 13 14 mph 1018.9mb 49f
8:00 11 13 mph 1018.8mb 49f
7:00 20 23 mph 1018.9mb 49f
6:00 31 33 mph 1019.5mb 49f
5:00 26 28 mph 1020.5mb 48f
4:00 22 24 mph 1021.3mb 49f
3:00 21 24 mph 1022mb 48f
2:00 22 26 mph 1022.3mb 48f
1:00 23 25 mph 1022.9mb 48f
12:00 17 18 mph 1023.5mb 48f
11:00 15 16 mph 1023.5mb 48f
10:00 10 11 mph 1023.3mb 47f
9:00 8
mph
1023.1mb 46f
8:00 6 8 mph 1023mb 45f
7:00 8 9 mph 1023mb 45f
6:00 2 3 mph 1023.1mb 46f
5:00 10 11 mph 1023mb 48f
4:00 17 18 mph 1023.2mb 48f
3:00 17 18 mph 1023.2mb 48f
2:00 14 16 mph 1023.7mb 48f
1:00 9 10 mph 1023.4mb 48f
12:00 15 18 mph 1023.6mb 48f
lun. 04/14 11:00 14 16 mph 1023.6mb 48f
10:00 16 17 mph 1023.4mb 49f
9:00 15 16 mph 1023mb 49f
8:00 17 20 mph 1022.8mb 49f
7:00 22 23 mph 1022.8mb 49f
6:00 23 24 mph 1022.9mb 49f
5:00 23 24 mph 1022.1mb 49f
4:00 21 23 mph 1022.2mb 49f
3:00 18 20 mph 1022.7mb 50f
2:00 23 25 mph 1022.3mb 50f
1:00 29 32 mph 1021.8mb 51f
12:00 16 18 mph 1021.5mb 51f
11:00 17 20 mph 1021.2mb 50f
10:00 6 7 mph 1021mb 51f
9:00 5 6 mph 1020.5mb 49f
8:00 5 6 mph 1020.4mb 49f
7:00 8
mph
1019.8mb 49f
6:00 9 10 mph 1019.3mb 48f
5:00 6 7 mph 1019.5mb 49f
4:00 17 18 mph 1019.1mb 50f
3:00 15 16 mph 1019.5mb 49f
2:00 14 15 mph 1019.9mb 50f
1:00 10 11 mph 1020.7mb 51f
12:00 11 13 mph 1021.4mb 51f
dim. 04/13 11:00 5 6 mph 1022mb 53f
10:00 10 11 mph 1022.3mb 51f
9:00 16 17 mph 1022.4mb 52f
8:00 22 23 mph 1022.2mb 52f
7:00 21
mph
1022.5mb 52f
6:00 14 15 mph 1023.4mb 53f
5:00 11 13 mph 1024mb 52f
4:00 10
mph
1024.6mb 53f
3:00 11
mph
1025.3mb 53f
2:00 6 7 mph 1025.7mb 56f
1:00 8 9 mph 1025.9mb 55f
12:00 8
mph
1026.1mb 52f
11:00 3 5 mph 1026.1mb 51f
10:00 5
mph
1025.7mb 50f
9:00 8 9 mph 1025.4mb 49f
8:00 8
mph
1025mb 46f
7:00 7 8 mph 1024.5mb 44f
6:00  -  1 mph 1024mb 45f
5:00 6
mph
1023.9mb 46f
4:00 11 13 mph 1023.2mb 45f
3:00 10
mph
1023.2mb 46f
2:00 10 11 mph 1023mb 46f
1:00 13 14 mph 1022.5mb 47f
12:00 8
mph
1022.3mb 47f
sam. 04/12 11:00 5
mph
1022.2mb 48f
10:00 5 6 mph 1021.8mb 49f
9:00 10 11 mph 1021.1mb 50f
8:00 18 20 mph 1020.6mb 49f
7:00 21 23 mph 1020.6mb 49f
6:00 18 21 mph 1020.7mb 50f
5:00 15 16 mph 1020.6mb 50f
4:00 16 17 mph 1021mb 50f
3:00 15 16 mph 1021.1mb 51f
2:00 11 14 mph 1021mb 52f
1:00 10 13 mph 1021mb 50f
12:00 9 13 mph 1021mb 50f
11:00 10
mph
1020.9mb 48f